createdAt,value
2018-11-11T00:00:28.919Z,78.33
2018-11-11T00:02:58.531Z,74.43
2018-11-11T00:05:27.631Z,76.47
2018-11-11T00:08:05.033Z,74.13
2018-11-11T00:10:36.717Z,76.07
2018-11-11T00:13:05.815Z,69.80
2018-11-11T00:15:35.385Z,70.03
2018-11-11T00:18:06.841Z,73.70
2018-11-11T00:20:40.175Z,72.07
2018-11-11T00:23:11.448Z,74.77
2018-11-11T00:25:41.429Z,74.97
2018-11-11T00:28:11.160Z,72.27
2018-11-11T00:30:40.362Z,72.63
2018-11-11T00:33:09.497Z,75.20
2018-11-11T00:35:41.373Z,72.57
2018-11-11T00:38:10.765Z,75.70
2018-11-11T00:40:40.094Z,74.50
2018-11-11T00:43:11.723Z,69.47
2018-11-11T00:45:40.993Z,73.27
2018-11-11T00:48:11.565Z,78.50
2018-11-11T00:50:42.722Z,81.37
2018-11-11T00:53:18.774Z,77.93
2018-11-11T00:55:51.393Z,72.03
2018-11-11T00:58:20.574Z,82.60
2018-11-11T01:00:49.652Z,76.10
2018-11-11T01:03:18.822Z,79.63
2018-11-11T01:05:49.477Z,80.23
2018-11-11T01:08:26.295Z,79.87
2018-11-11T01:10:59.731Z,78.77
2018-11-11T01:13:29.237Z,75.00
2018-11-11T01:15:58.453Z,81.13
2018-11-11T01:18:29.593Z,74.67
2018-11-11T01:20:58.571Z,71.03
2018-11-11T01:23:27.583Z,71.93
2018-11-11T01:25:57.198Z,66.83
2018-11-11T01:28:26.329Z,71.47
2018-11-11T01:30:55.485Z,69.03
2018-11-11T01:33:24.633Z,73.47
2018-11-11T01:35:54.925Z,68.43
2018-11-11T01:38:24.298Z,70.27
2018-11-11T01:40:58.886Z,76.70
2018-11-11T01:43:31.292Z,68.43
2018-11-11T01:46:01.800Z,69.73
2018-11-11T01:48:33.812Z,73.20
2018-11-11T01:51:05.707Z,72.00
2018-11-11T01:53:34.739Z,69.97
2018-11-11T01:56:04.360Z,70.60
2018-11-11T01:58:35.888Z,67.53
2018-11-11T02:01:06.317Z,69.77
2018-11-11T02:03:35.624Z,69.53
2018-11-11T02:06:05.204Z,70.77
2018-11-11T02:08:34.283Z,74.77
2018-11-11T02:11:05.276Z,72.73
2018-11-11T02:13:40.304Z,70.23
2018-11-11T02:16:13.783Z,79.13
2018-11-11T02:18:43.563Z,71.93
2018-11-11T02:21:12.723Z,78.40
2018-11-11T02:23:44.741Z,72.80
2018-11-11T02:26:15.418Z,76.60
2018-11-11T02:28:45.639Z,75.13
2018-11-11T02:31:16.638Z,72.73
2018-11-11T02:33:50.012Z,78.13
2018-11-11T02:36:19.107Z,78.40
2018-11-11T02:38:49.062Z,75.40
2018-11-11T02:41:20.985Z,77.20
2018-11-11T02:43:51.309Z,75.73
2018-11-11T02:46:23.963Z,78.30
2018-11-11T02:49:00.118Z,77.47
2018-11-11T02:51:30.278Z,76.03
2018-11-11T02:54:00.510Z,74.97
2018-11-11T02:56:31.169Z,76.23
2018-11-11T02:59:00.856Z,71.70
2018-11-11T03:01:39.670Z,72.83
2018-11-11T03:04:08.784Z,72.93
2018-11-11T03:06:52.589Z,75.90
2018-11-11T03:09:21.748Z,75.10
2018-11-11T03:12:01.223Z,75.20
2018-11-11T03:14:31.566Z,73.13
2018-11-11T03:17:02.222Z,73.87
2018-11-11T03:19:33.125Z,70.70
2018-11-11T03:22:03.160Z,71.43
2018-11-11T03:24:33.214Z,71.33
2018-11-11T03:27:04.687Z,74.03
2018-11-11T03:29:40.302Z,69.33
2018-11-11T03:32:10.712Z,69.27
2018-11-11T03:34:44.179Z,69.83
2018-11-11T03:37:15.285Z,73.33
2018-11-11T03:39:49.709Z,70.53
2018-11-11T03:42:23.264Z,69.60
2018-11-11T03:44:58.485Z,64.43
2018-11-11T03:47:30.148Z,71.30
2018-11-11T03:50:08.507Z,65.03
2018-11-11T03:52:37.809Z,70.93
2018-11-11T03:55:07.113Z,66.37
2018-11-11T03:57:36.484Z,66.37
2018-11-11T04:00:06.742Z,69.87
2018-11-11T04:02:37.414Z,68.90
2018-11-11T04:05:08.330Z,72.13
2018-11-11T04:07:37.556Z,69.27
2018-11-11T04:10:13.487Z,68.93
2018-11-11T04:12:42.647Z,66.83
2018-11-11T04:15:12.998Z,73.13
2018-11-11T04:17:46.244Z,70.83
2018-11-11T04:20:16.644Z,72.20
2018-11-11T04:25:41.790Z,67.40
2018-11-11T04:28:13.565Z,67.67
2018-11-11T04:30:46.646Z,69.60
2018-11-11T04:33:15.770Z,64.47
2018-11-11T04:35:44.843Z,70.00
2018-11-11T04:38:19.079Z,72.50
2018-11-11T04:40:54.702Z,61.80
2018-11-11T04:43:30.326Z,64.07
2018-11-11T04:46:06.696Z,65.10
2018-11-11T04:48:44.186Z,66.13
2018-11-11T04:51:20.309Z,61.57
2018-11-11T04:53:51.853Z,60.90
2018-11-11T04:56:21.346Z,63.20
2018-11-11T04:58:59.773Z,61.80
2018-11-11T05:01:29.976Z,62.43
2018-11-11T05:03:59.288Z,64.27
2018-11-11T05:06:32.270Z,62.07
2018-11-11T05:09:01.363Z,63.67
2018-11-11T05:11:37.221Z,63.43
2018-11-11T05:14:06.355Z,60.80
2018-11-11T05:16:35.370Z,62.30
2018-11-11T05:19:11.109Z,64.80
2018-11-11T05:21:40.229Z,62.40
2018-11-11T05:24:20.488Z,59.03
2018-11-11T05:26:59.161Z,61.50
2018-11-11T05:29:28.754Z,53.13
2018-11-11T05:31:57.757Z,59.73
2018-11-11T05:34:26.718Z,60.97
2018-11-11T05:36:56.137Z,63.80
2018-11-11T05:39:25.509Z,63.10
2018-11-11T05:41:54.988Z,64.13
2018-11-11T05:44:29.201Z,62.10
2018-11-11T05:46:58.492Z,59.20
2018-11-11T05:49:27.653Z,61.57
2018-11-11T05:52:03.070Z,60.57
2018-11-11T05:54:35.621Z,61.10
2018-11-11T05:57:04.777Z,64.33
2018-11-11T05:59:41.115Z,64.00
2018-11-11T06:02:11.737Z,61.40
2018-11-11T06:04:48.029Z,59.37
2018-11-11T06:07:20.811Z,57.90
2018-11-11T06:09:55.429Z,59.73
2018-11-11T06:12:24.871Z,58.17
2018-11-11T06:14:54.440Z,59.17
2018-11-11T06:17:23.576Z,57.63
2018-11-11T06:19:52.859Z,61.47
2018-11-11T06:22:21.934Z,60.70
2018-11-11T06:24:51.354Z,57.70
2018-11-11T06:27:20.549Z,57.73
2018-11-11T06:29:51.452Z,60.37
2018-11-11T06:32:20.519Z,59.40
2018-11-11T06:34:49.698Z,57.73
2018-11-11T06:37:18.796Z,56.23
2018-11-11T06:39:47.917Z,58.43
2018-11-11T06:42:23.633Z,56.70
2018-11-11T06:44:52.942Z,57.57
2018-11-11T06:47:29.753Z,59.20
2018-11-11T06:50:00.969Z,56.77
2018-11-11T06:52:29.944Z,58.83
2018-11-11T06:55:01.769Z,62.63
2018-11-11T06:57:30.804Z,62.67
2018-11-11T06:59:59.975Z,58.83
2018-11-11T07:02:37.690Z,60.07
2018-11-11T07:05:08.573Z,60.37
2018-11-11T07:07:37.718Z,56.50
2018-11-11T07:10:07.076Z,62.53
2018-11-11T07:12:36.102Z,58.67
2018-11-11T07:15:06.105Z,56.10
2018-11-11T07:17:35.154Z,57.20
2018-11-11T07:20:04.793Z,58.47
2018-11-11T07:22:34.082Z,60.60
2018-11-11T07:25:11.276Z,60.97
2018-11-11T07:27:40.454Z,65.53
2018-11-11T07:30:09.443Z,61.63
2018-11-11T07:32:38.442Z,61.03
2018-11-11T07:35:08.868Z,57.30
2018-11-11T07:37:37.942Z,63.17
2018-11-11T07:40:09.460Z,63.80
2018-11-11T07:42:38.460Z,62.93
2018-11-11T07:45:07.560Z,61.93
2018-11-11T07:47:37.547Z,60.50
2018-11-11T07:50:19.871Z,66.57
2018-11-11T07:52:49.140Z,65.67
2018-11-11T07:55:18.382Z,64.40
2018-11-11T07:57:47.432Z,62.57
2018-11-11T08:00:16.494Z,71.40
2018-11-11T08:02:45.561Z,63.97
2018-11-11T08:05:15.021Z,66.23
2018-11-11T08:07:44.290Z,69.50
2018-11-11T08:10:24.623Z,66.17
2018-11-11T08:12:53.720Z,66.80
2018-11-11T08:15:22.795Z,60.83
2018-11-11T08:17:51.823Z,61.97
2018-11-11T08:20:21.515Z,59.50
2018-11-11T08:22:50.691Z,61.27
2018-11-11T08:25:20.174Z,58.13
2018-11-11T08:27:49.229Z,61.00
2018-11-11T08:30:18.387Z,62.20
2018-11-11T08:32:47.471Z,57.77
2018-11-11T08:35:16.550Z,59.03
2018-11-11T08:37:45.920Z,58.50
2018-11-11T08:40:14.967Z,62.30
2018-11-11T08:42:44.446Z,60.70
2018-11-11T08:45:14.637Z,59.70
2018-11-11T08:47:45.276Z,57.60
2018-11-11T08:50:14.994Z,55.30
2018-11-11T08:52:44.011Z,57.07
2018-11-11T08:55:13.134Z,53.63
2018-11-11T08:57:42.823Z,53.90
2018-11-11T09:00:13.228Z,55.07
2018-11-11T09:02:42.523Z,53.50
2018-11-11T09:05:11.523Z,52.00
2018-11-11T09:07:40.624Z,55.00
2018-11-11T09:10:12.139Z,55.20
2018-11-11T09:12:41.206Z,55.10
2018-11-11T09:15:13.099Z,52.73
2018-11-11T09:17:42.712Z,53.40
2018-11-11T09:20:13.253Z,52.43
2018-11-11T09:22:43.220Z,56.03
2018-11-11T09:25:12.364Z,54.67
2018-11-11T09:27:42.942Z,52.67
2018-11-11T09:30:13.507Z,58.97
2018-11-11T09:32:42.938Z,55.43
2018-11-11T09:35:12.300Z,50.60
2018-11-11T09:37:41.848Z,55.53
2018-11-11T09:40:12.151Z,59.30
2018-11-11T09:42:41.312Z,56.77
2018-11-11T09:45:15.298Z,58.17
2018-11-11T09:47:44.839Z,59.90
2018-11-11T09:50:15.987Z,56.00
2018-11-11T09:52:45.043Z,62.20
2018-11-11T09:55:14.760Z,61.70
2018-11-11T09:57:43.831Z,59.43
2018-11-11T10:00:17.332Z,58.03
2018-11-11T10:02:50.554Z,58.13
2018-11-11T10:05:23.557Z,58.00
2018-11-11T10:07:56.437Z,57.20
2018-11-11T10:10:30.940Z,57.70
2018-11-11T10:13:03.874Z,58.87
2018-11-11T10:17:43.466Z,55.53
2018-11-11T10:20:24.440Z,56.97
2018-11-11T10:24:05.359Z,59.17
2018-11-11T10:26:38.771Z,57.60
2018-11-11T10:31:17.879Z,55.10
2018-11-11T10:33:54.773Z,55.40
2018-11-11T10:36:58.020Z,54.70
2018-11-11T10:41:35.613Z,55.20
2018-11-11T10:45:13.809Z,56.30
2018-11-11T10:48:03.085Z,54.50
2018-11-11T10:50:54.540Z,57.50
2018-11-11T10:53:24.047Z,52.20
2018-11-11T10:55:53.234Z,51.57
2018-11-11T10:58:22.456Z,57.70
2018-11-11T11:00:57.590Z,52.80
2018-11-11T11:03:31.504Z,55.10
2018-11-11T11:06:01.771Z,52.33
2018-11-11T11:08:32.416Z,54.50
2018-11-11T11:11:01.655Z,55.43
2018-11-11T11:13:31.392Z,53.50
2018-11-11T11:16:03.527Z,51.77
2018-11-11T11:18:33.644Z,54.07
2018-11-11T11:21:02.913Z,51.53
2018-11-11T11:23:33.044Z,54.57
2018-11-11T11:26:02.077Z,48.70
2018-11-11T11:28:34.009Z,50.20
2018-11-11T11:31:03.509Z,50.73
2018-11-11T11:33:32.878Z,50.37
2018-11-11T11:36:02.218Z,54.43
2018-11-11T11:38:32.379Z,49.03
2018-11-11T11:41:02.833Z,52.80
2018-11-11T11:43:31.927Z,53.63
2018-11-11T11:46:01.319Z,52.50
2018-11-11T11:48:30.927Z,50.77
2018-11-11T11:51:00.511Z,54.90
2018-11-11T11:53:29.701Z,51.60
2018-11-11T11:55:59.374Z,53.43
2018-11-11T11:58:29.738Z,55.10
2018-11-11T12:00:59.922Z,58.20
2018-11-11T12:03:30.048Z,61.97
2018-11-11T12:06:00.956Z,56.37
2018-11-11T12:08:31.223Z,57.27
2018-11-11T12:11:01.930Z,64.80
2018-11-11T12:13:33.730Z,61.23
2018-11-11T12:16:04.310Z,61.23
2018-11-11T12:18:33.802Z,61.23
2018-11-11T12:21:04.945Z,58.33
2018-11-11T12:23:34.392Z,64.23
2018-11-11T12:26:04.791Z,61.83
2018-11-11T12:28:35.217Z,67.73
2018-11-11T12:31:05.566Z,61.47
2018-11-11T12:33:35.355Z,62.87
2018-11-11T12:36:06.333Z,63.67
2018-11-11T12:38:35.954Z,61.17
2018-11-11T12:41:07.972Z,55.00
2018-11-11T12:43:37.360Z,53.43
2018-11-11T12:46:10.991Z,51.33
2018-11-11T12:48:40.814Z,48.07
2018-11-11T12:51:11.870Z,48.03
2018-11-11T12:56:34.658Z,50.77
2018-11-11T12:59:06.890Z,49.80
2018-11-11T13:01:37.876Z,48.53
2018-11-11T13:04:08.477Z,51.60
2018-11-11T13:06:38.072Z,52.37
2018-11-11T13:09:14.139Z,47.10
2018-11-11T13:11:43.674Z,48.37
2018-11-11T13:14:14.556Z,42.30
2018-11-11T13:16:44.154Z,42.90
2018-11-11T13:19:13.528Z,43.27
2018-11-11T13:21:43.545Z,37.67
2018-11-11T13:24:14.638Z,44.27
2018-11-11T13:26:48.308Z,41.17
2018-11-11T13:29:17.666Z,39.27
2018-11-11T13:31:47.860Z,39.37
2018-11-11T13:34:19.377Z,38.77
2018-11-11T13:36:48.899Z,38.70
2018-11-11T13:39:20.738Z,41.63
2018-11-11T13:41:55.805Z,37.60
2018-11-11T13:44:27.542Z,36.13
2018-11-11T13:47:00.194Z,39.83
2018-11-11T13:49:30.827Z,38.03
2018-11-11T13:52:03.489Z,39.73
2018-11-11T13:54:32.681Z,36.90
2018-11-11T13:57:06.113Z,37.67
2018-11-11T13:59:37.959Z,37.77
2018-11-11T14:02:07.878Z,36.80
2018-11-11T14:04:37.267Z,36.73
2018-11-11T14:07:06.531Z,39.10
2018-11-11T14:09:37.809Z,35.33
2018-11-11T14:12:06.907Z,34.77
2018-11-11T14:14:36.329Z,35.17
2018-11-11T14:17:06.644Z,34.93
2018-11-11T14:19:39.777Z,36.33
2018-11-11T14:22:12.280Z,35.63
2018-11-11T14:24:41.421Z,36.43
2018-11-11T14:27:11.379Z,35.93
2018-11-11T14:29:41.468Z,31.77
2018-11-11T14:32:10.587Z,31.63
2018-11-11T14:34:45.298Z,31.80
2018-11-11T14:37:14.497Z,33.90
2018-11-11T14:39:51.926Z,35.20
2018-11-11T14:42:22.296Z,32.90
2018-11-11T14:44:55.381Z,32.03
2018-11-11T14:47:24.950Z,30.73
2018-11-11T14:49:59.841Z,28.60
2018-11-11T14:52:34.999Z,30.97
2018-11-11T14:55:05.912Z,28.83
2018-11-11T14:57:34.947Z,31.53
2018-11-11T15:00:04.850Z,31.43
2018-11-11T15:02:33.989Z,33.40
2018-11-11T15:05:03.423Z,32.60
2018-11-11T15:07:32.537Z,32.80
2018-11-11T15:10:01.712Z,34.00
2018-11-11T15:12:31.148Z,31.73
2018-11-11T15:15:00.273Z,29.43
2018-11-11T15:17:31.008Z,32.10
2018-11-11T15:20:00.447Z,35.40
2018-11-11T15:22:29.751Z,30.53
2018-11-11T15:25:00.205Z,28.67
2018-11-11T15:27:29.241Z,28.07
2018-11-11T15:29:58.234Z,25.53
2018-11-11T15:32:27.549Z,28.93
2018-11-11T15:34:56.860Z,30.60
2018-11-11T15:37:26.545Z,27.40
2018-11-11T15:39:55.595Z,27.90
2018-11-11T15:42:24.703Z,27.17
2018-11-11T15:44:53.825Z,25.77
2018-11-11T15:47:24.980Z,25.70
2018-11-11T15:49:54.100Z,25.73
2018-11-11T15:52:23.885Z,26.83
2018-11-11T15:54:53.412Z,24.93
2018-11-11T15:57:22.743Z,26.30
2018-11-11T15:59:52.105Z,26.17
2018-11-11T16:02:21.263Z,25.00
2018-11-11T16:04:50.327Z,25.77
2018-11-11T16:07:19.792Z,26.43
2018-11-11T16:09:48.816Z,24.57
2018-11-11T16:12:17.946Z,25.70
2018-11-11T16:14:47.226Z,25.97
2018-11-11T16:17:16.715Z,27.77
2018-11-11T16:19:45.805Z,25.13
2018-11-11T16:22:15.943Z,26.93
2018-11-11T16:24:45.374Z,27.53
2018-11-11T16:27:14.588Z,26.60
2018-11-11T16:29:44.522Z,26.07
2018-11-11T16:32:13.613Z,24.50
2018-11-11T16:34:42.845Z,27.67
2018-11-11T16:37:11.947Z,28.40
2018-11-11T16:39:41.327Z,29.07
2018-11-11T16:42:10.592Z,29.80
2018-11-11T16:44:47.044Z,30.07
2018-11-11T16:47:23.670Z,27.10
2018-11-11T16:49:52.907Z,27.50
2018-11-11T16:52:22.898Z,28.43
2018-11-11T16:54:51.972Z,27.70
2018-11-11T16:57:22.815Z,27.23
2018-11-11T16:59:55.214Z,27.23
2018-11-11T17:02:24.452Z,26.50
2018-11-11T17:04:54.843Z,31.97
2018-11-11T17:07:24.936Z,29.17
2018-11-11T17:09:54.226Z,26.67
2018-11-11T17:12:33.015Z,29.60
2018-11-11T17:15:02.149Z,28.90
2018-11-11T17:17:31.231Z,29.50
2018-11-11T17:20:00.411Z,30.67
2018-11-11T17:22:30.237Z,25.80
2018-11-11T17:24:59.242Z,31.23
2018-11-11T17:27:28.665Z,27.07
2018-11-11T17:29:58.128Z,29.97
2018-11-11T17:32:27.760Z,28.47
2018-11-11T17:34:57.591Z,26.70
2018-11-11T17:37:26.921Z,27.53
2018-11-11T17:39:56.616Z,27.23
2018-11-11T17:42:25.994Z,29.00
2018-11-11T17:44:55.167Z,30.70
2018-11-11T17:47:30.129Z,27.83
2018-11-11T17:49:59.332Z,28.20
2018-11-11T17:52:28.474Z,29.87
2018-11-11T17:54:57.833Z,26.77
2018-11-11T17:57:27.382Z,27.97
2018-11-11T17:59:56.814Z,29.77
2018-11-11T18:02:26.982Z,26.70
2018-11-11T18:04:56.109Z,24.27
2018-11-11T18:07:25.294Z,25.13
2018-11-11T18:09:54.502Z,26.17
2018-11-11T18:12:23.854Z,25.57
2018-11-11T18:14:54.423Z,23.70
2018-11-11T18:17:24.333Z,23.33
2018-11-11T18:19:53.447Z,20.33
2018-11-11T18:22:23.029Z,21.63
2018-11-11T18:24:52.651Z,21.13
2018-11-11T18:27:22.578Z,21.70
2018-11-11T18:29:53.503Z,20.53
2018-11-11T19:18:03.978Z,33.33
2018-11-11T19:20:35.296Z,34.20
2018-11-11T19:23:16.431Z,24.33
2018-11-11T19:25:48.647Z,24.37
2018-11-11T19:28:31.147Z,24.97
2018-11-11T19:31:14.924Z,22.40
2018-11-11T19:37:03.389Z,21.50
2018-11-11T19:39:55.456Z,21.07
2018-11-11T19:42:37.598Z,21.20
2018-11-11T19:45:13.731Z,23.57
2018-11-11T19:47:57.307Z,22.63
2018-11-11T19:56:29.155Z,22.37
2018-11-11T20:02:11.393Z,20.50
2018-11-11T20:04:54.551Z,19.53
2018-11-11T20:13:27.116Z,18.33
2018-11-11T20:22:15.351Z,18.43
2018-11-11T20:25:05.196Z,20.53
2018-11-11T20:27:48.365Z,17.83
2018-11-11T20:30:24.755Z,20.20
2018-11-11T20:33:01.775Z,17.63
2018-11-11T20:35:37.834Z,20.63
2018-11-11T20:38:19.133Z,17.53
2018-11-11T20:41:26.153Z,18.60
2018-11-11T20:44:20.309Z,19.43
2018-11-11T20:50:37.909Z,18.73
2018-11-11T20:53:17.893Z,17.53
2018-11-11T20:56:00.257Z,17.97
2018-11-11T20:58:31.944Z,19.43
2018-11-11T21:01:07.338Z,17.83
2018-11-11T21:03:39.901Z,18.07
2018-11-11T21:06:19.376Z,18.87
2018-11-11T21:08:50.144Z,15.47
2018-11-11T21:11:25.601Z,16.17
2018-11-11T21:13:59.438Z,15.80
2018-11-11T21:16:33.485Z,16.30
2018-11-11T21:19:04.534Z,15.77
2018-11-11T21:21:34.622Z,17.67
2018-11-11T21:24:05.243Z,18.43
2018-11-11T21:26:36.130Z,17.17
2018-11-11T21:29:07.117Z,16.50
2018-11-11T21:31:36.982Z,18.37
2018-11-11T21:34:07.080Z,17.13
2018-11-11T21:36:37.763Z,16.97
2018-11-11T21:39:14.733Z,17.23
2018-11-11T21:42:05.524Z,16.03
2018-11-11T21:44:36.691Z,16.07
2018-11-11T21:47:13.198Z,17.27
2018-11-11T21:49:43.092Z,16.67
2018-11-11T21:52:13.192Z,16.80
2018-11-11T21:54:50.694Z,17.10
2018-11-11T21:57:26.413Z,19.03
2018-11-11T21:59:57.039Z,18.47
2018-11-11T22:02:26.535Z,18.30
2018-11-11T22:04:58.889Z,19.23
2018-11-11T22:07:32.632Z,17.83
2018-11-11T22:10:04.099Z,21.57
2018-11-11T22:12:40.032Z,18.23
2018-11-11T22:15:10.896Z,16.87
2018-11-11T22:17:40.562Z,17.90
2018-11-11T22:20:10.563Z,17.90
2018-11-11T22:22:40.639Z,17.03
2018-11-11T22:25:10.384Z,16.57
2018-11-11T22:27:46.544Z,17.50
2018-11-11T22:30:24.093Z,17.20
2018-11-11T22:33:13.230Z,16.23
2018-11-11T22:36:23.712Z,16.37
2018-11-11T22:39:11.934Z,15.93
2018-11-11T22:41:43.406Z,17.33
2018-11-11T22:44:12.984Z,16.77
2018-11-11T22:46:42.853Z,16.77
2018-11-11T22:49:11.962Z,15.57
2018-11-11T22:51:41.047Z,16.90
2018-11-11T22:54:15.177Z,16.60
2018-11-11T22:57:02.299Z,18.17
2018-11-11T22:59:37.107Z,16.97
2018-11-11T23:02:07.252Z,17.00
2018-11-11T23:04:37.112Z,16.63
2018-11-11T23:07:06.945Z,16.37
2018-11-11T23:09:36.093Z,16.00
2018-11-11T23:12:14.791Z,16.93
2018-11-11T23:14:45.517Z,16.13
2018-11-11T23:17:14.708Z,18.83
2018-11-11T23:19:44.255Z,17.00
2018-11-11T23:22:15.546Z,17.33
2018-11-11T23:24:57.777Z,17.43
2018-11-11T23:27:29.663Z,17.30
2018-11-11T23:29:59.379Z,17.07
2018-11-11T23:32:28.529Z,17.37
2018-11-11T23:34:57.617Z,17.67
2018-11-11T23:37:26.654Z,17.67
2018-11-11T23:39:55.688Z,16.83
2018-11-11T23:42:24.703Z,18.30
2018-11-11T23:44:53.658Z,16.93
2018-11-11T23:47:22.811Z,19.00
2018-11-11T23:49:51.819Z,18.27
2018-11-11T23:52:20.860Z,18.43
2018-11-11T23:54:50.485Z,18.13
2018-11-11T23:57:19.591Z,17.03
2018-11-11T23:59:48.684Z,18.07
